PWSweather.com
Personal Weather Stations
Station Observations
INORDPAS37
Bondues, BonduesFR 59910

BonduesBonduesFR 59910

Lat: 50.7, Lon: 3.09

Elevation: 102

Station Type: Netatmo

http://bondues.meteoamikuze.com

High Low Average
Temperature 47.8°F8.8°C 30.0°F-1.1°C 37.6°F3.1°C
Dew Point 34.2°F1.2°C 18.3°F-7.6°C 25.6°F-3.6°C
Winds 4.3 mph 6.9 kmh Calm Calm 2.0 mph S3.2 kmh S
Wind Gusts 9.8 mph15.8 kmh 1.3 mph2.1 kmh 4.0 mph6.4 kmh
Humidity 71% 63% 67%
Pressure 30.29 in1025.7 mb 30.21 in1023.0 mb -
Precipitation 0.00 in0.0 mm - -
Hour Temp Dew Point Humidity Winds Wind Gusts Pressure Precip Precip Rate Daily Precip Total
12:01 AM 31.8°F-0.1°C 19.8°F-6.8°C 66% 1.3 mph SW2.1 kmh SW 1.8 mph2.9 kmh 30.28 in1025.4 mb 0.00 in0.0 mm 0.00 in0.0 mm 0.00 in0.0 mm
12:21 AM 31.5°F-0.3°C 19.4°F-7.0°C 66% 0.7 mph NW1.1 kmh NW 1.3 mph2.1 kmh 30.29 in1025.7 mb 0.00 in0.0 mm 0.00 in0.0 mm 0.00 in0.0 mm
12:41 AM 31.1°F-0.5°C 19.0°F-7.2°C 66% 1.3 mph SW2.1 kmh SW 2.5 mph4.0 kmh 30.28 in1025.4 mb 0.00 in0.0 mm 0.00 in0.0 mm 0.00 in0.0 mm
01:02 AM 30.9°F-0.6°C 18.9°F-7.3°C 66% 1.3 mph SW2.1 kmh SW 1.8 mph2.9 kmh 30.29 in1025.7 mb 0.00 in0.0 mm 0.00 in0.0 mm 0.00 in0.0 mm
01:21 AM 30.6°F-0.8°C 18.9°F-7.3°C 67% Calm Calm 1.3 mph2.1 kmh 30.29 in1025.7 mb 0.00 in0.0 mm 0.00 in0.0 mm 0.00 in0.0 mm
01:42 AM 30.2°F-1.0°C 18.5°F-7.5°C 67% 0.7 mph S1.1 kmh S 1.8 mph2.9 kmh 30.29 in1025.7 mb 0.00 in0.0 mm 0.00 in0.0 mm 0.00 in0.0 mm
02:02 AM 30.2°F-1.0°C 18.5°F-7.5°C 67% 1.3 mph SW2.1 kmh SW 1.8 mph2.9 kmh 30.29 in1025.7 mb 0.00 in0.0 mm 0.00 in0.0 mm 0.00 in0.0 mm
02:23 AM 30.0°F-1.1°C 18.3°F-7.6°C 67% Calm Calm 1.3 mph2.1 kmh 30.29 in1025.7 mb 0.00 in0.0 mm 0.00 in0.0 mm 0.00 in0.0 mm
02:42 AM 30.7°F-0.7°C 19.0°F-7.2°C 67% 1.3 mph SSE2.1 kmh SSE 1.8 mph2.9 kmh 30.29 in1025.7 mb 0.00 in0.0 mm 0.00 in0.0 mm 0.00 in0.0 mm
03:03 AM 31.6°F-0.2°C 20.3°F-6.5°C 68% 2.5 mph SSE4.0 kmh SSE 5.6 mph9.0 kmh 30.28 in1025.4 mb 0.00 in0.0 mm 0.00 in0.0 mm 0.00 in0.0 mm
03:23 AM 32.7°F0.4°C 21.2°F-6.0°C 68% 1.8 mph SSE2.9 kmh SSE 3.8 mph6.1 kmh 30.28 in1025.4 mb 0.00 in0.0 mm 0.00 in0.0 mm 0.00 in0.0 mm
03:43 AM 33.3°F0.7°C 21.7°F-5.7°C 68% 2.5 mph SSE4.0 kmh SSE 6.9 mph11.1 kmh 30.28 in1025.4 mb 0.00 in0.0 mm 0.00 in0.0 mm 0.00 in0.0 mm
04:04 AM 32.9°F0.5°C 21.4°F-5.9°C 68% 0.7 mph SSE1.1 kmh SSE 3.1 mph5.0 kmh 30.28 in1025.4 mb 0.00 in0.0 mm 0.00 in0.0 mm 0.00 in0.0 mm
04:24 AM 32.4°F0.2°C 21.0°F-6.1°C 68% 0.7 mph SSE1.1 kmh SSE 2.5 mph4.0 kmh 30.28 in1025.4 mb 0.00 in0.0 mm 0.00 in0.0 mm 0.00 in0.0 mm
04:45 AM 32.0°F0.0°C 20.7°F-6.3°C 68% 1.3 mph SSE2.1 kmh SSE 2.5 mph4.0 kmh 30.28 in1025.4 mb 0.00 in0.0 mm 0.00 in0.0 mm 0.00 in0.0 mm
05:06 AM 31.8°F-0.1°C 20.8°F-6.2°C 69% 1.3 mph SSE2.1 kmh SSE 3.1 mph5.0 kmh 30.28 in1025.4 mb 0.00 in0.0 mm 0.00 in0.0 mm 0.00 in0.0 mm
05:26 AM 31.8°F-0.1°C 20.8°F-6.2°C 69% 2.5 mph S4.0 kmh S 3.8 mph6.1 kmh 30.28 in1025.4 mb 0.00 in0.0 mm 0.00 in0.0 mm 0.00 in0.0 mm
05:46 AM 31.5°F-0.3°C 20.5°F-6.4°C 69% 1.3 mph S2.1 kmh S 3.1 mph5.0 kmh 30.28 in1025.4 mb 0.00 in0.0 mm 0.00 in0.0 mm 0.00 in0.0 mm
06:07 AM 31.1°F-0.5°C 20.1°F-6.6°C 69% 1.8 mph S2.9 kmh S 3.1 mph5.0 kmh 30.28 in1025.4 mb 0.00 in0.0 mm 0.00 in0.0 mm 0.00 in0.0 mm
06:26 AM 30.9°F-0.6°C 19.9°F-6.7°C 69% 1.3 mph S2.1 kmh S 2.5 mph4.0 kmh 30.28 in1025.4 mb 0.00 in0.0 mm 0.00 in0.0 mm 0.00 in0.0 mm
06:47 AM 30.6°F-0.8°C 19.6°F-6.9°C 69% 1.3 mph S2.1 kmh S 2.5 mph4.0 kmh 30.27 in1025.1 mb 0.00 in0.0 mm 0.00 in0.0 mm 0.00 in0.0 mm
07:07 AM 30.6°F-0.8°C 19.6°F-6.9°C 69% 1.8 mph SSE2.9 kmh SSE 3.8 mph6.1 kmh 30.27 in1025.1 mb 0.00 in0.0 mm 0.00 in0.0 mm 0.00 in0.0 mm
07:27 AM 30.6°F-0.8°C 19.6°F-6.9°C 69% 1.8 mph SE2.9 kmh SE 3.8 mph6.1 kmh 30.27 in1025.1 mb 0.00 in0.0 mm 0.00 in0.0 mm 0.00 in0.0 mm
07:47 AM 30.7°F-0.7°C 20.1°F-6.6°C 70% 1.8 mph SSE2.9 kmh SSE 4.3 mph6.9 kmh 30.27 in1025.1 mb 0.00 in0.0 mm 0.00 in0.0 mm 0.00 in0.0 mm
08:08 AM 30.7°F-0.7°C 20.1°F-6.6°C 70% 1.8 mph SSE2.9 kmh SSE 3.8 mph6.1 kmh 30.28 in1025.4 mb 0.00 in0.0 mm 0.00 in0.0 mm 0.00 in0.0 mm
08:28 AM 30.9°F-0.6°C 20.3°F-6.5°C 70% 2.5 mph S4.0 kmh S 4.3 mph6.9 kmh 30.28 in1025.4 mb 0.00 in0.0 mm 0.00 in0.0 mm 0.00 in0.0 mm
08:48 AM 30.9°F-0.6°C 20.3°F-6.5°C 70% 3.1 mph S5.0 kmh S 4.9 mph7.9 kmh 30.28 in1025.4 mb 0.00 in0.0 mm 0.00 in0.0 mm 0.00 in0.0 mm
09:09 AM 31.3°F-0.4°C 20.7°F-6.3°C 70% 1.8 mph S2.9 kmh S 3.1 mph5.0 kmh 30.28 in1025.4 mb 0.00 in0.0 mm 0.00 in0.0 mm 0.00 in0.0 mm
09:28 AM 31.8°F-0.1°C 21.2°F-6.0°C 70% 2.5 mph S4.0 kmh S 4.3 mph6.9 kmh 30.29 in1025.7 mb 0.00 in0.0 mm 0.00 in0.0 mm 0.00 in0.0 mm
09:49 AM 33.3°F0.7°C 22.8°F-5.1°C 71% 3.1 mph S5.0 kmh S 4.9 mph7.9 kmh 30.28 in1025.4 mb 0.00 in0.0 mm 0.00 in0.0 mm 0.00 in0.0 mm
10:15 AM 34.0°F1.1°C 23.5°F-4.7°C 71% 2.5 mph SSE4.0 kmh SSE 5.6 mph9.0 kmh 30.28 in1025.4 mb 0.00 in0.0 mm 0.00 in0.0 mm 0.00 in0.0 mm
10:35 AM 35.6°F2.0°C 25.2°F-3.8°C 71% 2.5 mph SSE4.0 kmh SSE 5.6 mph9.0 kmh 30.29 in1025.7 mb 0.00 in0.0 mm 0.00 in0.0 mm 0.00 in0.0 mm
10:55 AM 37.4°F3.0°C 26.8°F-2.9°C 71% 2.5 mph S4.0 kmh S 7.4 mph11.9 kmh 30.28 in1025.4 mb 0.00 in0.0 mm 0.00 in0.0 mm 0.00 in0.0 mm
11:15 AM 39.2°F4.0°C 28.6°F-1.9°C 71% 2.5 mph S4.0 kmh S 5.6 mph9.0 kmh 30.28 in1025.4 mb 0.00 in0.0 mm 0.00 in0.0 mm 0.00 in0.0 mm
11:35 AM 41.0°F5.0°C 30.0°F-1.1°C 70% 2.5 mph SSE4.0 kmh SSE 4.3 mph6.9 kmh 30.29 in1025.7 mb 0.00 in0.0 mm 0.00 in0.0 mm 0.00 in0.0 mm
11:55 AM 42.3°F5.7°C 31.1°F-0.5°C 70% 2.5 mph S4.0 kmh S 7.4 mph11.9 kmh 30.29 in1025.7 mb 0.00 in0.0 mm 0.00 in0.0 mm 0.00 in0.0 mm
12:15 PM 43.5°F6.4°C 32.0°F0.0°C 69% 3.1 mph S5.0 kmh S 7.4 mph11.9 kmh 30.28 in1025.4 mb 0.00 in0.0 mm 0.00 in0.0 mm 0.00 in0.0 mm
12:35 PM 44.1°F6.7°C 32.5°F0.3°C 69% 3.1 mph S5.0 kmh S 7.4 mph11.9 kmh 30.28 in1025.4 mb 0.00 in0.0 mm 0.00 in0.0 mm 0.00 in0.0 mm
12:55 PM 43.9°F6.6°C 32.0°F0.0°C 68% 3.1 mph S5.0 kmh S 8.1 mph13.0 kmh 30.27 in1025.1 mb 0.00 in0.0 mm 0.00 in0.0 mm 0.00 in0.0 mm
01:01 PM 44.1°F6.7°C 31.8°F-0.1°C 67% 3.1 mph SSE5.0 kmh SSE 7.4 mph11.9 kmh 30.27 in1025.1 mb 0.00 in0.0 mm 0.00 in0.0 mm 0.00 in0.0 mm
01:21 PM 45.0°F7.2°C 32.5°F0.3°C 67% 4.3 mph S6.9 kmh S 8.1 mph13.0 kmh 30.26 in1024.7 mb 0.00 in0.0 mm 0.00 in0.0 mm 0.00 in0.0 mm
01:41 PM 45.7°F7.6°C 33.3°F0.7°C 67% 3.1 mph S5.0 kmh S 7.4 mph11.9 kmh 30.27 in1025.1 mb 0.00 in0.0 mm 0.00 in0.0 mm 0.00 in0.0 mm
02:01 PM 46.2°F7.9°C 33.4°F0.8°C 66% 2.5 mph S4.0 kmh S 5.6 mph9.0 kmh 30.26 in1024.7 mb 0.00 in0.0 mm 0.00 in0.0 mm 0.00 in0.0 mm
02:21 PM 46.6°F8.1°C 33.8°F1.0°C 66% 3.1 mph S5.0 kmh S 5.6 mph9.0 kmh 30.25 in1024.4 mb 0.00 in0.0 mm 0.00 in0.0 mm 0.00 in0.0 mm
02:42 PM 46.9°F8.3°C 33.8°F1.0°C 65% 4.3 mph SSE6.9 kmh SSE 9.8 mph15.8 kmh 30.25 in1024.4 mb 0.00 in0.0 mm 0.00 in0.0 mm 0.00 in0.0 mm
03:01 PM 47.3°F8.5°C 34.0°F1.1°C 65% 3.1 mph SSW5.0 kmh SSW 8.1 mph13.0 kmh 30.25 in1024.4 mb 0.00 in0.0 mm 0.00 in0.0 mm 0.00 in0.0 mm
03:22 PM 47.5°F8.6°C 34.2°F1.2°C 65% 2.5 mph SW4.0 kmh SW 6.9 mph11.1 kmh 30.25 in1024.4 mb 0.00 in0.0 mm 0.00 in0.0 mm 0.00 in0.0 mm
03:42 PM 47.7°F8.7°C 34.0°F1.1°C 64% 3.1 mph S5.0 kmh S 7.4 mph11.9 kmh 30.25 in1024.4 mb 0.00 in0.0 mm 0.00 in0.0 mm 0.00 in0.0 mm
04:03 PM 47.8°F8.8°C 33.8°F1.0°C 63% 2.5 mph S4.0 kmh S 5.6 mph9.0 kmh 30.25 in1024.4 mb 0.00 in0.0 mm 0.00 in0.0 mm 0.00 in0.0 mm
04:23 PM 47.5°F8.6°C 33.4°F0.8°C 63% 2.5 mph S4.0 kmh S 6.9 mph11.1 kmh 30.24 in1024.0 mb 0.00 in0.0 mm 0.00 in0.0 mm 0.00 in0.0 mm
04:43 PM 46.4°F8.0°C 32.5°F0.3°C 63% 1.8 mph S2.9 kmh S 4.3 mph6.9 kmh 30.24 in1024.0 mb 0.00 in0.0 mm 0.00 in0.0 mm 0.00 in0.0 mm
05:04 PM 45.5°F7.5°C 31.6°F-0.2°C 63% 1.3 mph S2.1 kmh S 3.8 mph6.1 kmh 30.24 in1024.0 mb 0.00 in0.0 mm 0.00 in0.0 mm 0.00 in0.0 mm
05:24 PM 45.0°F7.2°C 31.1°F-0.5°C 63% 1.8 mph S2.9 kmh S 4.3 mph6.9 kmh 30.24 in1024.0 mb 0.00 in0.0 mm 0.00 in0.0 mm 0.00 in0.0 mm
05:44 PM 44.4°F6.9°C 30.6°F-0.8°C 63% 1.3 mph S2.1 kmh S 3.8 mph6.1 kmh 30.24 in1024.0 mb 0.00 in0.0 mm 0.00 in0.0 mm 0.00 in0.0 mm
06:04 PM 43.9°F6.6°C 30.4°F-0.9°C 64% 1.3 mph S2.1 kmh S 3.1 mph5.0 kmh 30.24 in1024.0 mb 0.00 in0.0 mm 0.00 in0.0 mm 0.00 in0.0 mm
06:26 PM 43.2°F6.2°C 29.8°F-1.2°C 64% 1.8 mph S2.9 kmh S 3.1 mph5.0 kmh 30.24 in1024.0 mb 0.00 in0.0 mm 0.00 in0.0 mm 0.00 in0.0 mm
06:46 PM 42.6°F5.9°C 29.3°F-1.5°C 64% 1.8 mph S2.9 kmh S 3.8 mph6.1 kmh 30.24 in1024.0 mb 0.00 in0.0 mm 0.00 in0.0 mm 0.00 in0.0 mm
07:07 PM 41.9°F5.5°C 28.6°F-1.9°C 64% 1.8 mph S2.9 kmh S 3.8 mph6.1 kmh 30.24 in1024.0 mb 0.00 in0.0 mm 0.00 in0.0 mm 0.00 in0.0 mm
07:27 PM 41.2°F5.1°C 28.2°F-2.1°C 65% 1.3 mph S2.1 kmh S 3.8 mph6.1 kmh 30.24 in1024.0 mb 0.00 in0.0 mm 0.00 in0.0 mm 0.00 in0.0 mm
07:47 PM 40.6°F4.8°C 27.7°F-2.4°C 65% 1.3 mph S2.1 kmh S 2.5 mph4.0 kmh 30.24 in1024.0 mb 0.00 in0.0 mm 0.00 in0.0 mm 0.00 in0.0 mm
08:07 PM 39.9°F4.4°C 27.1°F-2.7°C 65% 1.3 mph S2.1 kmh S 3.1 mph5.0 kmh 30.24 in1024.0 mb 0.00 in0.0 mm 0.00 in0.0 mm 0.00 in0.0 mm
08:28 PM 39.4°F4.1°C 26.6°F-3.0°C 65% 0.7 mph S1.1 kmh S 2.5 mph4.0 kmh 30.24 in1024.0 mb 0.00 in0.0 mm 0.00 in0.0 mm 0.00 in0.0 mm
08:47 PM 38.8°F3.8°C 26.1°F-3.3°C 65% 1.3 mph S2.1 kmh S 4.3 mph6.9 kmh 30.24 in1024.0 mb 0.00 in0.0 mm 0.00 in0.0 mm 0.00 in0.0 mm
09:08 PM 38.5°F3.6°C 25.7°F-3.5°C 65% 2.5 mph SSE4.0 kmh SSE 6.9 mph11.1 kmh 30.23 in1023.7 mb 0.00 in0.0 mm 0.00 in0.0 mm 0.00 in0.0 mm
09:28 PM 38.7°F3.7°C 26.2°F-3.2°C 66% 3.1 mph SSE5.0 kmh SSE 5.6 mph9.0 kmh 30.23 in1023.7 mb 0.00 in0.0 mm 0.00 in0.0 mm 0.00 in0.0 mm
09:48 PM 38.5°F3.6°C 26.1°F-3.3°C 66% 1.3 mph S2.1 kmh S 4.3 mph6.9 kmh 30.23 in1023.7 mb 0.00 in0.0 mm 0.00 in0.0 mm 0.00 in0.0 mm
10:07 PM 38.3°F3.5°C 25.9°F-3.4°C 66% 1.3 mph S2.1 kmh S 4.3 mph6.9 kmh 30.23 in1023.7 mb 0.00 in0.0 mm 0.00 in0.0 mm 0.00 in0.0 mm
10:27 PM 37.8°F3.2°C 25.3°F-3.7°C 66% 1.3 mph S2.1 kmh S 3.1 mph5.0 kmh 30.22 in1023.4 mb 0.00 in0.0 mm 0.00 in0.0 mm 0.00 in0.0 mm
10:47 PM 37.6°F3.1°C 25.2°F-3.8°C 66% 1.8 mph S2.9 kmh S 4.3 mph6.9 kmh 30.22 in1023.4 mb 0.00 in0.0 mm 0.00 in0.0 mm 0.00 in0.0 mm
11:02 PM 37.4°F3.0°C 25.0°F-3.9°C 66% 1.8 mph S2.9 kmh S 4.9 mph7.9 kmh 30.22 in1023.4 mb 0.00 in0.0 mm 0.00 in0.0 mm 0.00 in0.0 mm
11:35 PM 37.2°F2.9°C 25.2°F-3.8°C 67% 1.8 mph S2.9 kmh S 4.9 mph7.9 kmh 30.21 in1023.0 mb 0.00 in0.0 mm 0.00 in0.0 mm 0.00 in0.0 mm
11:41 PM 37.0°F2.8°C 25.0°F-3.9°C 67% 2.5 mph SSE4.0 kmh SSE 5.6 mph9.0 kmh 30.21 in1023.0 mb 0.00 in0.0 mm 0.00 in0.0 mm 0.00 in0.0 mm